Time;durP1;ratioP1;P1;durP2;ratioP2;P2;SDS_P1;SDS_P2;PMS_P1;PMS_P2;Temp;Humidity;BMP_temperature;BMP_pressure;BME280_temperature;BME280_humidity;BME280_pressure;Samples;Min_cycle;Max_cycle;Signal;HPM_P1;HPM_P2
2022/01/13 00:00:22;;;;;;;79.05;22.52;;;;;;;2.76;100.00;104200.91;5085896;28;20298;-75
2022/01/13 00:03:15;;;;;;;73.18;21.95;;;;;;;2.77;100.00;104196.53;5087664;28;20062;-76
2022/01/13 00:05:49;;;;;;;74.22;19.55;;;;;;;2.75;100.00;104192.91;5086984;28;20083;-76
2022/01/13 00:08:18;;;;;;;81.65;18.60;;;;;;;2.72;100.00;104192.75;5094344;28;20089;-75
2022/01/13 00:10:46;;;;;;;93.22;21.35;;;;;;;2.73;100.00;104199.84;5092498;28;20079;-76
2022/01/13 00:13:22;;;;;;;85.63;20.65;;;;;;;2.69;100.00;104193.50;5087680;28;20351;-75
2022/01/13 00:16:24;;;;;;;79.00;20.33;;;;;;;2.69;100.00;104200.47;5081735;28;20081;-75
2022/01/13 00:19:04;;;;;;;83.22;18.88;;;;;;;2.72;100.00;104200.66;5077776;28;20060;-75
2022/01/13 00:22:00;;;;;;;69.18;17.67;;;;;;;2.72;100.00;104198.91;5041512;28;20102;-76
2022/01/13 00:24:29;;;;;;;69.22;16.85;;;;;;;2.73;100.00;104191.94;5044519;28;20368;-75
2022/01/13 00:26:56;;;;;;;64.18;16.38;;;;;;;2.75;100.00;104193.81;5044619;28;20489;-74
2022/01/13 00:29:30;;;;;;;61.50;16.63;;;;;;;2.77;100.00;104193.88;5047794;28;20474;-75
2022/01/13 00:31:58;;;;;;;47.20;14.10;;;;;;;2.82;100.00;104191.50;5069611;27;20052;-75
2022/01/13 00:34:26;;;;;;;42.42;13.00;;;;;;;2.83;100.00;104190.66;5084870;27;20071;-75
2022/01/13 00:36:54;;;;;;;44.17;13.13;;;;;;;2.82;100.00;104184.50;5088263;28;20039;-75
2022/01/13 00:39:21;;;;;;;48.03;16.38;;;;;;;2.81;100.00;104187.97;5086211;28;20067;-75
2022/01/13 00:41:51;;;;;;;51.33;14.25;;;;;;;2.83;100.00;104186.31;5088899;27;20103;-75
2022/01/13 00:44:21;;;;;;;40.60;13.07;;;;;;;2.80;100.00;104183.50;5087664;27;20069;-75
2022/01/13 00:46:55;;;;;;;44.85;12.73;;;;;;;2.83;100.00;104188.03;5090762;27;20087;-75
2022/01/13 00:49:24;;;;;;;52.08;14.73;;;;;;;2.79;100.00;104184.31;5092791;27;20129;-76
2022/01/13 00:51:52;;;;;;;44.90;14.18;;;;;;;2.79;100.00;104181.69;5088067;27;20537;-75
2022/01/13 00:54:20;;;;;;;46.50;14.98;;;;;;;2.80;100.00;104189.69;5086718;27;20517;-76
2022/01/13 00:56:48;;;;;;;42.15;13.05;;;;;;;2.82;100.00;104196.78;5093575;27;20050;-76
2022/01/13 00:59:17;;;;;;;39.45;12.90;;;;;;;2.86;100.00;104201.38;5086162;28;20048;-77
2022/01/13 01:01:47;;;;;;;46.97;12.90;;;;;;;2.87;100.00;104196.19;5088258;28;20548;-75
2022/01/13 01:04:16;;;;;;;42.38;13.25;;;;;;;2.92;100.00;104194.72;5089981;28;20832;-75
2022/01/13 01:06:44;;;;;;;52.97;14.10;;;;;;;2.90;100.00;104203.38;5089773;27;20093;-75
2022/01/13 01:09:16;;;;;;;44.25;14.90;;;;;;;2.92;100.00;104201.72;5088291;28;20060;-75
2022/01/13 01:12:10;;;;;;;53.80;14.27;;;;;;;2.93;100.00;104204.44;5090655;28;20054;-75
2022/01/13 01:14:48;;;;;;;53.25;16.65;;;;;;;2.93;100.00;104211.47;5088151;28;20206;-75
2022/01/13 01:17:17;;;;;;;45.67;14.23;;;;;;;2.93;100.00;104220.28;5089714;27;20159;-75
2022/01/13 01:23:58;;;;;;;47.92;14.27;;;;;;;2.93;100.00;104204.44;5088322;28;20325;-73
2022/01/13 01:27:16;;;;;;;52.92;15.07;;;;;;;2.90;100.00;104209.56;5088421;28;20521;-73
2022/01/13 01:30:25;;;;;;;56.88;16.00;;;;;;;2.88;100.00;104213.84;5090007;28;20518;-73
2022/01/13 01:33:17;;;;;;;51.42;15.95;;;;;;;2.90;100.00;104209.56;5087054;28;20059;-75
2022/01/13 01:35:59;;;;;;;72.78;18.67;;;;;;;2.91;100.00;104216.66;5086946;28;20058;-74
2022/01/13 01:41:45;;;;;;;58.88;17.00;;;;;;;2.84;100.00;104208.31;5083368;28;20052;-74
2022/01/13 01:44:39;;;;;;;65.15;16.65;;;;;;;2.85;100.00;104212.78;5091121;27;20195;-74
2022/01/13 01:47:33;;;;;;;53.78;16.38;;;;;;;2.88;100.00;104224.41;5077842;27;20130;-74
2022/01/13 01:50:11;;;;;;;49.85;16.38;;;;;;;2.90;100.00;104227.13;5093247;27;20048;-76
2022/01/13 01:52:40;;;;;;;84.68;19.33;;;;;;;2.85;100.00;104226.88;5084769;28;20067;-76
2022/01/13 01:55:09;;;;;;;91.30;18.85;;;;;;;2.86;100.00;104223.41;5085500;28;20414;-76
2022/01/13 01:57:39;;;;;;;56.45;17.02;;;;;;;2.88;100.00;104216.47;5085480;28;20081;-76
2022/01/13 02:00:10;;;;;;;61.30;18.60;;;;;;;2.91;100.00;104221.00;5086170;27;20126;-76
2022/01/13 02:02:40;;;;;;;65.10;18.80;;;;;;;2.90;100.00;104217.47;5087120;28;20142;-76
2022/01/13 02:05:08;;;;;;;82.20;18.13;;;;;;;2.90;100.00;104216.56;5085752;28;20399;-76
2022/01/13 02:07:37;;;;;;;96.97;20.05;;;;;;;2.91;100.00;104211.38;5082620;27;20499;-76
2022/01/13 02:10:07;;;;;;;61.97;17.27;;;;;;;2.99;100.00;104203.84;5083937;28;20326;-76
2022/01/13 02:12:40;;;;;;;75.65;18.27;;;;;;;2.95;100.00;104202.78;5084589;28;20047;-76
2022/01/13 02:15:32;;;;;;;67.47;18.15;;;;;;;2.94;100.00;104203.59;5080237;28;20128;-76
2022/01/13 02:18:05;;;;;;;71.57;17.45;;;;;;;2.91;100.00;104211.38;5083461;28;20079;-75
2022/01/13 02:21:00;;;;;;;83.70;18.63;;;;;;;2.94;100.00;104195.69;5082305;28;20063;-75
2022/01/13 02:23:34;;;;;;;72.43;18.00;;;;;;;2.94;100.00;104193.06;5081030;27;20085;-74
2022/01/13 02:26:02;;;;;;;67.70;18.27;;;;;;;2.94;100.00;104190.41;5078002;28;20405;-74
2022/01/13 02:28:30;;;;;;;106.68;20.13;;;;;;;2.92;100.00;104188.53;5082605;28;20040;-74
2022/01/13 02:30:59;;;;;;;80.90;17.95;;;;;;;2.95;100.00;104192.25;5085079;28;20139;-75
2022/01/13 02:33:27;;;;;;;75.45;19.55;;;;;;;2.97;100.00;104185.31;5086077;28;20079;-76
2022/01/13 02:36:01;;;;;;;63.80;17.17;;;;;;;2.96;100.00;104185.22;5087062;28;20057;-75
2022/01/13 02:38:29;;;;;;;68.70;17.63;;;;;;;2.94;100.00;104173.69;5085880;28;20044;-75
2022/01/13 02:40:59;;;;;;;63.30;17.10;;;;;;;2.96;100.00;104169.38;5086048;28;20071;-76
2022/01/13 02:43:30;;;;;;;74.70;18.48;;;;;;;2.96;100.00;104165.03;5087587;28;20097;-75
2022/01/13 02:46:18;;;;;;;59.58;18.00;;;;;;;2.96;100.00;104159.78;5086201;28;20096;-76
2022/01/13 02:48:48;;;;;;;73.30;15.35;;;;;;;2.95;100.00;104162.31;5087878;28;20097;-75
2022/01/13 02:51:18;;;;;;;74.03;17.98;;;;;;;2.93;100.00;104158.69;5084138;28;20569;-75
2022/01/13 02:53:47;;;;;;;56.88;16.92;;;;;;;2.93;100.00;104159.59;5086110;28;20548;-75
2022/01/13 02:56:15;;;;;;;71.10;16.20;;;;;;;2.92;100.00;104163.06;5085811;28;20166;-76
2022/01/13 02:58:45;;;;;;;64.57;17.58;;;;;;;2.90;100.00;104159.44;5085511;28;20555;-75
2022/01/13 03:01:13;;;;;;;76.45;18.55;;;;;;;2.87;100.00;104161.91;5084039;28;20047;-75
2022/01/13 03:03:42;;;;;;;59.50;17.40;;;;;;;2.89;100.00;104164.63;5086779;28;20062;-75
2022/01/13 03:06:12;;;;;;;76.57;17.42;;;;;;;2.89;100.00;104169.91;5085329;28;20044;-75
2022/01/13 03:08:44;;;;;;;50.90;17.20;;;;;;;2.88;100.00;104165.44;5085924;28;20662;-75
2022/01/13 03:11:13;;;;;;;59.83;16.40;;;;;;;2.91;100.00;104163.91;5084630;28;20083;-75
2022/01/13 03:13:41;;;;;;;89.55;20.52;;;;;;;2.89;100.00;104164.63;5089795;28;20044;-75
2022/01/13 03:16:10;;;;;;;75.68;17.77;;;;;;;2.92;100.00;104157.78;5089512;28;20362;-75
2022/01/13 03:18:38;;;;;;;66.35;16.45;;;;;;;2.93;100.00;104151.69;5083246;28;20044;-75
2022/01/13 03:21:07;;;;;;;55.50;16.25;;;;;;;2.97;100.00;104150.09;5086076;28;20393;-75
2022/01/13 03:23:37;;;;;;;60.63;17.75;;;;;;;2.96;100.00;104154.50;5083453;28;20130;-75
2022/01/13 03:26:06;;;;;;;71.15;18.35;;;;;;;2.96;100.00;104149.22;5086439;28;20138;-74
2022/01/13 03:28:40;;;;;;;61.30;17.25;;;;;;;3.02;100.00;104150.34;5085063;28;20290;-75
2022/01/13 03:31:09;;;;;;;49.42;15.75;;;;;;;3.04;100.00;104146.97;5086960;28;20074;-75
2022/01/13 03:33:37;;;;;;;68.47;17.88;;;;;;;3.01;100.00;104136.25;5081735;28;20056;-74
2022/01/13 03:36:05;;;;;;;57.45;15.82;;;;;;;2.99;100.00;104146.72;5084098;28;20607;-75
2022/01/13 03:38:33;;;;;;;54.30;16.73;;;;;;;2.98;100.00;104142.28;5084410;28;20575;-75
2022/01/13 03:41:00;;;;;;;60.80;15.07;;;;;;;3.04;100.00;104144.31;5088521;28;20063;-75
2022/01/13 03:43:30;;;;;;;62.33;18.42;;;;;;;3.03;100.00;104139.88;5092086;27;20582;-75
2022/01/13 03:45:58;;;;;;;51.75;17.50;;;;;;;3.04;100.00;104130.22;5088401;28;20220;-74
2022/01/13 03:48:26;;;;;;;74.70;20.45;;;;;;;3.06;100.00;104144.41;5087521;27;20506;-76
2022/01/13 03:50:54;;;;;;;63.35;16.60;;;;;;;3.06;100.00;104133.84;5084745;28;20139;-76
2022/01/13 03:54:24;;;;;;;63.60;18.00;;;;;;;3.03;100.00;104141.59;5088443;28;20155;-76
2022/01/13 03:57:19;;;;;;;55.25;15.65;;;;;;;3.04;100.00;104139.03;5089382;27;20134;-75
2022/01/13 04:33:09;;;;;;;58.90;18.08;;;;;;;2.95;100.00;104142.13;4961434;28;20069;-76
2022/01/13 04:35:37;;;;;;;55.13;20.05;;;;;;;2.99;100.00;104145.81;4987017;28;20121;-76
2022/01/13 04:38:05;;;;;;;87.45;20.13;;;;;;;2.98;100.00;104139.63;4985356;28;20058;-76
2022/01/13 04:40:33;;;;;;;83.25;20.80;;;;;;;2.99;100.00;104148.44;4986407;28;20498;-75
2022/01/13 04:43:01;;;;;;;58.30;17.30;;;;;;;3.01;100.00;104137.97;4985124;28;20710;-76
2022/01/13 04:45:28;;;;;;;93.20;22.73;;;;;;;2.97;100.00;104134.28;4985002;28;20153;-75
2022/01/13 04:47:57;;;;;;;65.60;18.98;;;;;;;2.97;100.00;104139.56;4983127;28;20068;-75
2022/01/13 04:51:20;;;;;;;67.97;18.83;;;;;;;3.00;100.00;104150.28;4981445;28;20057;-73
2022/01/13 05:03:05;;;;;;;80.05;19.58;;;;;;;3.03;100.00;104133.69;5004107;28;20449;-73
2022/01/13 05:24:59;;;;;;;74.97;21.75;;;;;;;3.14;100.00;104128.13;5043500;28;20059;-75
2022/01/13 05:27:27;;;;;;;82.25;22.65;;;;;;;3.16;100.00;104130.84;5090794;28;20138;-75
2022/01/13 05:29:55;;;;;;;70.40;20.83;;;;;;;3.24;100.00;104142.72;5087747;28;20342;-75
2022/01/13 05:36:20;;;;;;;75.10;22.42;;;;;;;3.22;100.00;104143.44;5085337;28;20055;-74
2022/01/13 05:39:12;;;;;;;85.22;20.13;;;;;;;3.22;100.00;104151.38;5085498;28;20181;-75
2022/01/13 06:05:31;;;;;;;68.18;20.92;;;;;;;3.20;100.00;104142.47;4971999;28;20704;-73
2022/01/13 06:20:39;;;;;;;86.22;22.80;;;;;;;3.27;100.00;104134.97;4937480;28;20381;-72
2022/01/13 06:54:44;;;;;;;89.88;24.58;;;;;;;3.34;100.00;104136.19;4961466;28;20077;-73
2022/01/13 06:57:57;;;;;;;91.88;22.25;;;;;;;3.37;100.00;104141.59;4973254;28;20053;-75
2022/01/13 07:00:25;;;;;;;80.07;21.55;;;;;;;3.36;100.00;104137.16;4969505;28;20054;-76
2022/01/13 07:02:55;;;;;;;82.28;24.10;;;;;;;3.39;100.00;104133.75;4972715;28;20054;-75
2022/01/13 07:05:26;;;;;;;83.03;21.63;;;;;;;3.41;100.00;104140.94;4989852;28;20051;-74
2022/01/13 07:07:55;;;;;;;64.45;21.15;;;;;;;3.42;100.00;104142.72;5043513;28;20568;-74
2022/01/13 07:10:23;;;;;;;67.40;20.58;;;;;;;3.44;100.00;104142.81;5037286;28;20048;-74
2022/01/13 07:12:50;;;;;;;83.10;20.83;;;;;;;3.42;100.00;104139.19;5048734;28;20049;-74
2022/01/13 07:15:21;;;;;;;82.72;25.08;;;;;;;3.42;100.00;104142.72;5080436;28;20496;-74
2022/01/13 07:17:49;;;;;;;104.25;21.08;;;;;;;3.42;100.00;104144.47;5085671;28;20135;-74
2022/01/13 07:20:17;;;;;;;80.25;21.48;;;;;;;3.43;100.00;104147.19;5082560;28;20239;-75
2022/01/13 07:22:44;;;;;;;56.67;19.48;;;;;;;3.43;100.00;104149.81;5087664;28;20039;-74
2022/01/13 07:25:12;;;;;;;73.70;18.85;;;;;;;3.45;100.00;104147.25;5086764;28;20113;-75
2022/01/13 07:27:41;;;;;;;83.55;23.40;;;;;;;3.43;100.00;104146.28;5083174;28;20172;-74
2022/01/13 07:30:11;;;;;;;86.80;20.98;;;;;;;3.42;100.00;104140.06;5098962;27;20043;-74
2022/01/13 07:32:41;;;;;;;91.43;22.10;;;;;;;3.43;100.00;104136.63;5105994;27;20054;-74
2022/01/13 07:35:10;;;;;;;78.68;21.45;;;;;;;3.43;100.00;104141.00;5104504;27;20139;-74
2022/01/13 07:37:39;;;;;;;76.43;19.35;;;;;;;3.46;100.00;104150.00;5103299;27;20047;-74
2022/01/13 07:40:13;;;;;;;74.03;19.55;;;;;;;3.47;100.00;104145.59;5106532;27;20293;-74
2022/01/13 07:43:05;;;;;;;88.32;22.60;;;;;;;3.48;100.00;104144.78;5106468;27;20074;-74
2022/01/13 07:45:33;;;;;;;81.90;20.77;;;;;;;3.49;100.00;104147.50;5105140;27;20471;-73
2022/01/13 07:48:03;;;;;;;76.07;19.52;;;;;;;3.49;100.00;104152.78;5103626;27;20075;-74
2022/01/13 07:50:35;;;;;;;87.03;21.58;;;;;;;3.51;100.00;104153.75;5107138;27;20050;-76
2022/01/13 07:53:03;;;;;;;65.25;19.80;;;;;;;3.51;100.00;104151.13;5102969;27;20537;-74
2022/01/13 07:55:31;;;;;;;69.57;19.45;;;;;;;3.54;100.00;104158.28;5105041;27;20051;-74
2022/01/13 07:57:58;;;;;;;77.43;21.27;;;;;;;3.63;100.00;104169.31;5104432;27;20088;-76
2022/01/13 08:00:51;;;;;;;83.03;22.17;;;;;;;3.57;100.00;104162.81;5103854;27;20047;-75
2022/01/13 08:03:20;;;;;;;76.18;17.88;;;;;;;3.58;100.00;104152.34;5105405;27;20055;-76
2022/01/13 08:05:49;;;;;;;81.00;21.08;;;;;;;3.60;100.00;104158.59;5107293;27;20141;-74
2022/01/13 08:08:16;;;;;;;79.38;20.90;;;;;;;3.58;100.00;104165.53;5106948;27;20185;-74
2022/01/13 08:10:45;;;;;;;72.45;17.70;;;;;;;3.61;100.00;104157.78;5108298;27;20466;-75
2022/01/13 08:13:13;;;;;;;56.92;17.52;;;;;;;3.61;100.00;104162.13;5110605;27;20043;-74
2022/01/13 08:15:41;;;;;;;64.85;18.88;;;;;;;3.59;100.00;104163.78;5104665;27;20049;-74
2022/01/13 08:20:57;;;;;;;51.67;16.98;;;;;;;3.66;100.00;104169.47;5101780;27;20054;-74
2022/01/13 08:23:24;;;;;;;56.70;16.13;;;;;;;3.67;100.00;104162.44;5102673;27;20587;-75
2022/01/13 08:25:52;;;;;;;59.60;17.98;;;;;;;3.67;100.00;104162.44;5103436;27;20760;-74
2022/01/13 08:28:20;;;;;;;50.55;17.52;;;;;;;3.66;100.00;104168.53;5110235;27;20442;-74
2022/01/13 08:30:49;;;;;;;64.47;18.95;;;;;;;3.62;100.00;104167.50;5087757;27;20098;-74
2022/01/13 08:33:17;;;;;;;54.63;14.18;;;;;;;3.61;100.00;104160.41;5090629;27;20138;-74
2022/01/13 08:36:10;;;;;;;61.30;16.40;;;;;;;3.61;100.00;104163.06;5091160;27;20119;-74
2022/01/13 08:38:38;;;;;;;54.17;16.13;;;;;;;3.66;100.00;104165.91;5088587;27;20075;-74
2022/01/13 08:41:06;;;;;;;54.35;15.00;;;;;;;3.56;100.00;104169.84;5085761;28;20051;-75
2022/01/13 08:43:36;;;;;;;50.35;16.10;;;;;;;3.56;100.00;104175.13;5088901;28;20093;-73
2022/01/13 08:46:14;;;;;;;56.78;16.23;;;;;;;3.56;100.00;104175.13;5087671;28;20051;-71
2022/01/13 08:48:58;;;;;;;56.90;15.88;;;;;;;3.59;100.00;104179.66;5079386;28;20132;-72
2022/01/13 08:52:01;;;;;;;46.70;13.70;;;;;;;3.63;100.00;104187.81;5082298;28;20604;-72
2022/01/13 08:54:39;;;;;;;57.45;16.52;;;;;;;3.63;100.00;104187.81;5071895;28;20051;-72
2022/01/13 08:57:43;;;;;;;44.40;14.32;;;;;;;3.66;100.00;104189.69;5081827;28;20475;-72
2022/01/13 09:03:25;;;;;;;74.93;18.65;;;;;;;3.66;100.00;104185.31;5074632;28;20069;-70
2022/01/13 09:11:55;;;;;;;50.20;14.32;;;;;;;3.63;100.00;104197.47;5087494;28;19923;-71
2022/01/13 09:17:28;;;;;;;57.88;16.38;;;;;;;3.69;100.00;104187.19;5087408;28;20051;-71
2022/01/13 09:32:39;;;;;;;49.25;14.35;;;;;;;3.84;100.00;104176.50;5085507;28;20500;-70
2022/01/13 09:41:20;;;;;;;61.03;15.88;;;;;;;3.90;100.00;104180.34;5085674;28;20153;-70
2022/01/13 09:44:04;;;;;;;75.40;18.65;;;;;;;3.93;100.00;104171.63;5083686;28;20420;-70
2022/01/13 09:49:54;;;;;;;65.50;17.90;;;;;;;4.09;100.00;104181.25;5083970;28;20581;-70
2022/01/13 09:52:36;;;;;;;65.65;16.98;;;;;;;4.11;100.00;104193.69;5087016;28;20047;-70
2022/01/13 09:55:24;;;;;;;65.40;17.70;;;;;;;4.18;100.00;104197.53;5084996;28;20056;-70
2022/01/13 09:58:15;;;;;;;69.00;20.08;;;;;;;4.19;100.00;104188.78;5070342;28;20051;-70
2022/01/13 10:01:06;;;;;;;58.75;19.45;;;;;;;4.25;100.00;104186.41;5068713;28;21328;-70
2022/01/13 10:04:34;;;;;;;70.10;19.83;;;;;;;4.30;100.00;104191.91;5072948;28;20081;-71
2022/01/13 10:07:17;;;;;;;71.63;20.80;;;;;;;4.34;100.00;104187.69;5084200;28;20616;-69
2022/01/13 10:09:59;;;;;;;71.22;22.40;;;;;;;4.41;100.00;104190.69;5071647;28;20051;-73
2022/01/13 10:12:30;;;;;;;95.40;24.65;;;;;;;4.41;100.00;104187.13;5082046;28;20062;-73
2022/01/13 10:17:47;;;;;;;86.50;25.40;;;;;;;4.41;100.00;104176.56;5088186;27;20518;-71
2022/01/13 10:20:17;;;;;;;88.88;24.98;;;;;;;4.43;100.00;104170.50;5085883;28;20108;-74
2022/01/13 10:22:49;;;;;;;91.50;26.05;;;;;;;4.47;100.00;104180.38;5086219;28;20120;-73
2022/01/13 10:25:29;;;;;;;75.07;22.67;;;;;;;4.52;100.00;104180.59;5087102;28;20044;-73
2022/01/13 10:28:14;;;;;;;79.40;24.20;;;;;;;4.57;100.00;104184.38;5086054;27;20143;-73
2022/01/13 10:30:42;;;;;;;76.90;25.25;;;;;;;4.61;100.00;104175.72;5090801;28;20079;-73
2022/01/13 10:33:25;;;;;;;81.22;25.23;;;;;;;4.60;100.00;104184.53;5089209;28;20272;-70
2022/01/13 10:36:18;;;;;;;99.57;27.08;;;;;;;4.59;100.00;104181.81;5072989;28;20054;-70
2022/01/13 10:39:11;;;;;;;80.07;25.40;;;;;;;4.56;100.00;104173.72;5068605;28;20051;-70
2022/01/13 10:42:11;;;;;;;109.30;31.27;;;;;;;4.62;100.00;104179.31;5068930;28;20145;-73
2022/01/13 10:44:37;;;;;;;77.85;26.45;;;;;;;4.65;100.00;104177.69;5084188;28;20090;-73
2022/01/13 10:47:06;;;;;;;98.20;25.33;;;;;;;4.63;100.00;104174.09;5088184;28;20050;-72
2022/01/13 10:49:35;;;;;;;77.15;23.98;;;;;;;4.67;100.00;104173.38;5085635;28;20138;-72
2022/01/13 10:52:26;;;;;;;101.70;36.67;;;;;;;4.72;100.00;104164.75;5088890;27;20056;-72
2022/01/13 10:54:59;;;;;;;79.80;26.38;;;;;;;4.80;100.00;104163.34;5083229;28;20075;-72
2022/01/13 10:57:28;;;;;;;80.90;27.10;;;;;;;4.77;100.00;104165.88;5084478;28;20139;-73
2022/01/13 10:59:57;;;;;;;77.82;26.38;;;;;;;4.79;100.00;104167.75;5085559;28;20135;-73
2022/01/13 11:02:28;;;;;;;82.00;24.85;;;;;;;4.85;100.00;104156.50;5085937;28;20047;-72
2022/01/13 11:05:24;;;;;;;87.20;31.67;;;;;;;4.85;100.00;104164.44;5085741;28;20415;-73
2022/01/13 11:07:52;;;;;;;76.03;25.48;;;;;;;4.86;100.00;104158.34;5084666;28;20113;-72
2022/01/13 11:10:21;;;;;;;78.22;26.73;;;;;;;4.90;100.00;104159.38;5080694;28;20082;-72
2022/01/13 11:12:56;;;;;;;81.00;26.88;;;;;;;4.94;100.00;104158.66;5087072;28;20057;-72
2022/01/13 11:15:25;;;;;;;80.28;24.80;;;;;;;4.94;100.00;104162.22;5084778;28;20144;-73
2022/01/13 11:17:54;;;;;;;73.03;23.77;;;;;;;4.99;100.00;104162.44;5086518;28;20044;-73
2022/01/13 11:20:30;;;;;;;82.53;28.42;;;;;;;5.01;100.00;104163.41;5087212;28;20445;-70
2022/01/13 11:23:11;;;;;;;81.15;26.85;;;;;;;5.04;100.00;104160.91;5084791;28;21347;-70
2022/01/13 11:26:06;;;;;;;71.65;23.20;;;;;;;5.00;100.00;104151.00;5067175;28;20771;-70
2022/01/13 11:31:48;;;;;;;79.57;27.67;;;;;;;5.07;100.00;104150.44;5083373;28;20055;-71
2022/01/13 11:37:28;;;;;;;70.00;25.67;;;;;;;5.01;100.00;104156.38;5077721;28;20123;-73
2022/01/13 11:39:56;;;;;;;74.40;25.58;;;;;;;5.08;100.00;104154.91;5085500;28;20059;-73
2022/01/13 11:42:48;;;;;;;79.80;27.38;;;;;;;5.07;100.00;104149.53;5087120;28;20517;-73
2022/01/13 11:45:18;;;;;;;68.70;22.67;;;;;;;5.00;100.00;104149.25;5087401;28;20866;-74
2022/01/13 11:47:48;;;;;;;75.72;23.52;;;;;;;5.04;100.00;104145.91;5087969;28;20047;-74
2022/01/13 11:50:21;;;;;;;76.85;26.73;;;;;;;5.14;100.00;104147.22;5086613;28;20427;-73
2022/01/13 11:52:52;;;;;;;73.25;25.35;;;;;;;5.12;100.00;104143.59;5081620;28;20039;-73
2022/01/13 11:55:25;;;;;;;70.05;24.05;;;;;;;5.17;100.00;104133.22;5088037;28;20492;-72
2022/01/13 11:58:17;;;;;;;70.18;24.52;;;;;;;5.18;100.00;104133.28;5082301;28;20557;-72
2022/01/13 12:00:48;;;;;;;63.47;23.42;;;;;;;5.17;100.00;104139.41;5089475;28;20048;-73
2022/01/13 12:03:27;;;;;;;80.40;25.52;;;;;;;5.08;100.00;104139.00;5087861;28;20088;-73
2022/01/13 12:05:56;;;;;;;69.78;22.48;;;;;;;5.09;100.00;104137.25;5089752;28;20136;-72
2022/01/13 12:08:45;;;;;;;78.03;24.30;;;;;;;5.08;100.00;104124.88;5087685;28;20044;-73
2022/01/13 12:11:53;;;;;;;72.22;23.88;;;;;;;5.09;100.00;104126.69;5089924;28;20048;-73
2022/01/13 12:14:41;;;;;;;72.55;24.17;;;;;;;5.09;100.00;104118.72;5087130;27;20071;-72
2022/01/13 12:17:19;;;;;;;68.05;22.15;;;;;;;5.14;100.00;104112.81;5088570;27;20355;-72
2022/01/13 12:20:23;;;;;;;63.78;21.23;;;;;;;5.00;100.00;104113.94;5087936;28;20077;-73
2022/01/13 12:23:01;;;;;;;62.00;23.20;;;;;;;4.98;100.00;104103.28;5090532;28;20120;-73
2022/01/13 12:25:33;;;;;;;55.33;22.65;;;;;;;5.05;100.00;104102.72;5088444;28;20090;-72
2022/01/13 12:28:12;;;;;;;64.88;21.52;;;;;;;5.10;100.00;104094.09;5088075;27;20063;-73
2022/01/13 12:30:42;;;;;;;73.63;23.95;;;;;;;5.14;100.00;104091.63;5089040;28;20237;-73
2022/01/13 12:33:18;;;;;;;70.72;23.58;;;;;;;5.13;100.00;104083.63;5089170;28;20135;-73
2022/01/13 12:36:01;;;;;;;58.38;21.90;;;;;;;5.18;100.00;104090.91;5086861;28;20052;-71
2022/01/13 12:38:44;;;;;;;61.30;21.77;;;;;;;5.16;100.00;104083.72;5072302;28;20617;-71
2022/01/13 12:51:41;;;;;;;47.25;18.70;;;;;;;5.24;100.00;104085.88;5087382;28;20503;-72
2022/01/13 13:01:39;;;;;;;76.32;26.08;;;;;;;5.32;100.00;104072.94;5088374;28;20207;-73
2022/01/13 13:16:23;;;;;;;70.90;23.88;;;;;;;5.14;100.00;104065.16;4997804;28;20053;-72
2022/01/13 13:33:38;;;;;;;60.65;22.58;;;;;;;5.34;100.00;104050.06;4974593;28;20050;-74
2022/01/13 14:06:04;;;;;;;82.53;26.40;;;;;;;5.32;100.00;104043.81;5000866;28;20057;-73
2022/01/13 14:16:39;;;;;;;68.65;24.67;;;;;;;5.32;100.00;104054.41;5184420;27;20412;-74
2022/01/13 14:19:33;;;;;;;78.23;26.43;;;;;;;5.32;100.00;104048.22;5167614;27;20057;-74
2022/01/13 14:36:14;;;;;;;90.32;29.13;;;;;;;5.22;100.00;104054.88;5128978;27;20050;-78
2022/01/13 14:38:49;;;;;;;88.25;28.70;;;;;;;5.20;100.00;104057.47;5129770;27;20556;-76
2022/01/13 14:41:31;;;;;;;88.40;29.02;;;;;;;5.16;100.00;104050.25;5130025;27;20609;-75
2022/01/13 14:44:00;;;;;;;98.10;30.42;;;;;;;5.19;100.00;104047.72;5128014;27;20649;-78
2022/01/13 14:46:33;;;;;;;102.35;31.98;;;;;;;5.11;100.00;104058.81;5126739;27;20043;-78
2022/01/13 14:49:02;;;;;;;92.80;30.27;;;;;;;5.10;100.00;104043.78;5128870;27;20138;-77
2022/01/13 14:51:33;;;;;;;90.22;29.70;;;;;;;5.08;100.00;104053.41;5109709;27;20605;-78
2022/01/13 14:54:03;;;;;;;102.90;30.98;;;;;;;5.03;100.00;104051.47;5070197;28;20040;-78
2022/01/13 14:56:33;;;;;;;86.82;30.00;;;;;;;5.04;100.00;104047.97;5087441;28;20152;-78
2022/01/13 14:59:01;;;;;;;83.85;29.55;;;;;;;5.15;100.00;104043.13;5089070;28;20440;-79
2022/01/13 15:01:29;;;;;;;95.13;30.92;;;;;;;5.14;100.00;104041.34;5091272;28;20490;-78
2022/01/13 15:03:57;;;;;;;68.68;23.30;;;;;;;5.04;100.00;104040.03;5109827;28;20126;-78
2022/01/13 15:06:25;;;;;;;55.53;19.50;;;;;;;5.04;100.00;104036.50;5109585;28;20082;-78
2022/01/13 15:08:55;;;;;;;55.88;20.70;;;;;;;5.10;100.00;104036.75;5109695;28;20054;-75
2022/01/13 15:11:24;;;;;;;64.97;22.30;;;;;;;5.03;100.00;104039.97;5110398;28;20048;-76
2022/01/13 15:13:52;;;;;;;61.95;24.08;;;;;;;5.09;100.00;104042.91;5110001;28;20141;-76
2022/01/13 15:16:23;;;;;;;63.15;21.00;;;;;;;5.11;100.00;104045.56;5104970;27;20088;-78
2022/01/13 15:18:55;;;;;;;60.60;21.23;;;;;;;5.07;100.00;104038.34;5108596;28;20661;-77
2022/01/13 15:21:28;;;;;;;61.75;21.02;;;;;;;4.97;100.00;104040.63;5107352;28;20056;-76
2022/01/13 15:23:58;;;;;;;45.17;19.20;;;;;;;5.00;100.00;104045.13;5107887;28;20051;-77
2022/01/13 15:26:26;;;;;;;60.15;20.05;;;;;;;4.86;100.00;104047.19;5096114;27;20048;-77
2022/01/13 15:28:54;;;;;;;52.10;18.42;;;;;;;4.85;100.00;104045.38;5093846;28;20166;-77
2022/01/13 15:35:03;;;;;;;41.10;16.42;;;;;;;4.79;100.00;104053.06;5091918;28;20464;-77
2022/01/13 15:41:53;;;;;;;43.22;16.92;;;;;;;4.63;100.00;104056.78;5067355;28;20056;-74
2022/01/13 15:48:49;;;;;;;42.83;16.02;;;;;;;4.68;100.00;104052.59;5055738;28;20063;-77
2022/01/13 15:51:18;;;;;;;46.17;17.15;;;;;;;4.74;100.00;104044.94;5068043;28;20593;-77
2022/01/13 15:53:48;;;;;;;51.13;18.33;;;;;;;4.70;100.00;104052.66;5068027;28;20064;-77
2022/01/13 15:56:18;;;;;;;63.45;20.55;;;;;;;4.71;100.00;104044.78;5068180;28;20063;-78
2022/01/13 15:58:47;;;;;;;60.53;20.33;;;;;;;4.65;100.00;104047.19;5067450;28;20068;-77
2022/01/13 16:18:37;;;;;;;46.20;15.45;;;;;;;4.65;100.00;104049.84;5064074;28;20045;-75
2022/01/13 16:25:02;;;;;;;56.28;18.52;;;;;;;4.65;100.00;104056.00;5066034;28;20094;-75
2022/01/13 16:27:30;;;;;;;50.95;17.55;;;;;;;4.66;100.00;104055.16;5068070;28;20048;-75
2022/01/13 16:30:00;;;;;;;63.50;19.35;;;;;;;4.60;100.00;104052.25;5068199;28;20052;-75
2022/01/13 16:32:33;;;;;;;56.17;19.92;;;;;;;4.63;100.00;104046.19;5066383;28;20080;-75
2022/01/13 16:35:05;;;;;;;53.47;18.33;;;;;;;4.64;100.00;104050.66;5066964;28;20067;-75
2022/01/13 16:37:36;;;;;;;57.65;19.60;;;;;;;4.62;100.00;104053.22;5062681;28;20079;-75
2022/01/13 16:40:09;;;;;;;46.15;16.25;;;;;;;4.64;100.00;104058.59;5070195;28;20060;-75
2022/01/13 16:42:40;;;;;;;54.97;19.02;;;;;;;4.61;100.00;104053.16;5070577;28;20047;-76
2022/01/13 16:45:09;;;;;;;50.55;17.42;;;;;;;4.60;100.00;104044.31;5073167;28;20066;-76
2022/01/13 16:47:38;;;;;;;53.95;17.55;;;;;;;4.60;100.00;104044.31;5072072;28;20048;-77
2022/01/13 16:50:10;;;;;;;47.30;17.08;;;;;;;4.59;100.00;104042.50;5072258;28;20432;-76
2022/01/13 16:52:38;;;;;;;58.65;18.27;;;;;;;4.57;100.00;104035.34;5097456;28;20058;-78
2022/01/13 16:55:07;;;;;;;57.15;17.90;;;;;;;4.59;100.00;104031.94;5090865;28;20043;-76
2022/01/13 16:57:36;;;;;;;55.00;19.10;;;;;;;4.58;100.00;104040.72;5089340;28;20075;-77
2022/01/13 17:00:05;;;;;;;58.97;18.27;;;;;;;4.55;100.00;104035.28;5090187;28;20182;-77